Time;durP1;ratioP1;P1;durP2;ratioP2;P2;SDS_P1;SDS_P2;PMS_P1;PMS_P2;Temp;Humidity;BMP_temperature;BMP_pressure;BME280_temperature;BME280_humidity;BME280_pressure;Samples;Min_cycle;Max_cycle;Signal;HPM_P1;HPM_P2
2021/09/26 00:00:05;;;;;;;;;;;20.50;82.60;;;;;;4315571;33;44226;-82
2021/09/26 00:02:32;;;;;;;;;;;20.50;82.70;;;;;;4315426;33;44621;-82
2021/09/26 00:05:00;;;;;;;;;;;20.50;82.70;;;;;;4315478;33;44104;-82
2021/09/26 00:07:29;;;;;;;;;;;20.50;82.80;;;;;;4315536;33;44231;-81
2021/09/26 00:09:59;;;;;;;;;;;20.50;82.90;;;;;;4315261;33;43387;-81
2021/09/26 00:12:27;;;;;;;;;;;20.50;83.10;;;;;;4302814;33;44304;-81
2021/09/26 00:14:54;;;;;;;;;;;20.40;83.10;;;;;;4315391;33;44154;-81
2021/09/26 00:17:21;;;;;;;;;;;20.40;83.30;;;;;;4315543;33;43798;-82
2021/09/26 00:19:51;;;;;;;;;;;20.40;83.40;;;;;;4315303;33;43973;-81
2021/09/26 00:22:21;;;;;;;;;;;20.40;83.50;;;;;;4302823;33;43475;-82
2021/09/26 00:24:48;;;;;;;;;;;20.40;83.60;;;;;;4316005;33;45761;-82
2021/09/26 00:27:15;;;;;;;;;;;20.40;83.60;;;;;;4314749;33;43939;-81
2021/09/26 00:29:45;;;;;;;;;;;20.40;83.80;;;;;;4302999;33;45016;-82
2021/09/26 00:32:13;;;;;;;;;;;20.40;83.80;;;;;;4315713;33;43039;-81
2021/09/26 00:34:40;;;;;;;;;;;20.40;83.90;;;;;;4315554;33;44764;-81
2021/09/26 00:37:07;;;;;;;;;;;20.40;83.90;;;;;;4315546;33;44163;-81
2021/09/26 00:39:34;;;;;;;;;;;20.40;84.00;;;;;;4314318;33;44130;-81
2021/09/26 00:42:02;;;;;;;;;;;20.40;84.10;;;;;;4315181;33;44607;-81
2021/09/26 00:44:29;;;;;;;;;;;20.40;84.20;;;;;;4302551;33;42918;-82
2021/09/26 00:46:56;;;;;;;;;;;20.40;84.20;;;;;;4315189;33;44641;-82
2021/09/26 00:49:24;;;;;;;;;;;20.40;84.30;;;;;;4315353;33;43214;-82
2021/09/26 00:51:51;;;;;;;;;;;20.30;84.40;;;;;;4315180;33;42978;-81
2021/09/26 00:54:18;;;;;;;;;;;20.30;84.50;;;;;;4316666;33;43834;-82
2021/09/26 00:56:47;;;;;;;;;;;20.30;84.60;;;;;;4304877;33;43482;-81
2021/09/26 00:59:15;;;;;;;;;;;20.30;84.60;;;;;;4317916;33;42646;-82
2021/09/26 01:01:42;;;;;;;;;;;20.30;84.80;;;;;;4305534;33;44233;-81
2021/09/26 01:04:10;;;;;;;;;;;20.20;84.80;;;;;;4317473;33;43973;-81
2021/09/26 01:06:55;;;;;;;;;;;20.20;85.00;;;;;;4318007;33;44822;-81
2021/09/26 01:09:27;;;;;;;;;;;20.20;85.00;;;;;;4317263;33;43186;-81
2021/09/26 01:12:09;;;;;;;;;;;20.20;85.10;;;;;;4317278;33;43482;-81
2021/09/26 01:14:55;;;;;;;;;;;20.20;85.20;;;;;;4316585;33;44124;-81
2021/09/26 01:17:24;;;;;;;;;;;20.20;85.30;;;;;;4316932;33;43654;-81
2021/09/26 01:19:51;;;;;;;;;;;20.20;85.30;;;;;;4316612;33;43063;-81
2021/09/26 01:22:21;;;;;;;;;;;20.20;85.40;;;;;;4318049;33;42985;-81
2021/09/26 01:25:07;;;;;;;;;;;20.20;85.50;;;;;;4318088;33;45682;-81
2021/09/26 01:27:34;;;;;;;;;;;20.20;85.50;;;;;;4316993;33;44211;-81
2021/09/26 01:30:20;;;;;;;;;;;20.20;85.50;;;;;;4317888;33;43893;-81
2021/09/26 01:33:00;;;;;;;;;;;20.20;85.70;;;;;;4317738;33;43483;-81
2021/09/26 01:35:31;;;;;;;;;;;20.20;85.70;;;;;;4316756;33;44365;-81
2021/09/26 01:38:01;;;;;;;;;;;20.20;85.80;;;;;;4317067;33;43220;-81
2021/09/26 01:40:33;;;;;;;;;;;20.20;86.00;;;;;;4317742;33;44191;-81
2021/09/26 01:43:04;;;;;;;;;;;20.20;85.90;;;;;;4317859;33;43831;-81
2021/09/26 01:45:43;;;;;;;;;;;20.10;85.90;;;;;;4318408;33;19998;-81
2021/09/26 01:48:27;;;;;;;;;;;20.20;86.10;;;;;;4316491;33;43438;-81
2021/09/26 01:50:59;;;;;;;;;;;20.20;86.20;;;;;;4316646;33;44029;-81
2021/09/26 01:53:29;;;;;;;;;;;20.10;86.20;;;;;;4316449;33;44144;-81
2021/09/26 01:55:57;;;;;;;;;;;20.10;86.30;;;;;;4316207;33;44024;-81
2021/09/26 01:58:25;;;;;;;;;;;20.10;86.40;;;;;;4317639;33;43101;-81
2021/09/26 02:00:52;;;;;;;;;;;20.10;86.50;;;;;;4317533;33;43186;-81
2021/09/26 02:03:20;;;;;;;;;;;20.10;86.60;;;;;;4316306;33;43851;-81
2021/09/26 02:05:47;;;;;;;;;;;20.10;86.70;;;;;;4316675;33;43507;-81
2021/09/26 02:08:15;;;;;;;;;;;20.10;86.90;;;;;;4304332;33;44490;-81
2021/09/26 02:10:44;;;;;;;;;;;20.00;86.90;;;;;;4316924;33;43520;-82
2021/09/26 02:13:11;;;;;;;;;;;20.00;87.00;;;;;;4317301;33;44327;-81
2021/09/26 02:15:39;;;;;;;;;;;20.00;87.10;;;;;;4317075;33;20058;-81
2021/09/26 02:18:06;;;;;;;;;;;20.00;87.20;;;;;;4317147;33;44264;-81
2021/09/26 02:20:35;;;;;;;;;;;20.00;87.30;;;;;;4304139;33;43076;-81
2021/09/26 02:23:02;;;;;;;;;;;20.00;87.40;;;;;;4303589;33;44723;-81
2021/09/26 02:25:29;;;;;;;;;;;20.00;87.50;;;;;;4317189;33;43486;-82
2021/09/26 02:27:57;;;;;;;;;;;20.00;87.60;;;;;;4303733;33;44924;-82
2021/09/26 02:30:26;;;;;;;;;;;20.00;87.60;;;;;;4317392;33;44013;-81
2021/09/26 02:32:54;;;;;;;;;;;19.90;87.80;;;;;;4317014;33;42297;-81
2021/09/26 02:35:21;;;;;;;;;;;19.90;87.90;;;;;;4315832;33;44198;-82
2021/09/26 02:37:54;;;;;;;;;;;19.90;87.90;;;;;;4303926;33;43246;-81
2021/09/26 02:40:21;;;;;;;;;;;19.90;88.10;;;;;;4316426;33;45781;-81
2021/09/26 02:43:02;;;;;;;;;;;19.90;88.10;;;;;;4316025;33;43900;-81
2021/09/26 02:45:39;;;;;;;;;;;19.90;88.20;;;;;;4316487;33;44476;-81
2021/09/26 02:48:14;;;;;;;;;;;19.90;88.30;;;;;;4315312;33;44913;-81
2021/09/26 02:50:42;;;;;;;;;;;19.90;88.50;;;;;;4316810;33;44021;-81
2021/09/26 02:53:09;;;;;;;;;;;19.90;88.70;;;;;;4316545;33;44898;-81
2021/09/26 02:55:37;;;;;;;;;;;19.90;88.80;;;;;;4303670;33;44255;-82
2021/09/26 02:58:04;;;;;;;;;;;19.80;88.80;;;;;;4303635;33;42759;-81
2021/09/26 03:00:33;;;;;;;;;;;19.80;89.00;;;;;;4315632;33;43547;-81
2021/09/26 03:03:20;;;;;;;;;;;19.80;89.20;;;;;;4315048;33;43204;-81
2021/09/26 03:05:51;;;;;;;;;;;19.80;89.40;;;;;;4316589;33;44121;-81
2021/09/26 03:08:18;;;;;;;;;;;19.80;89.50;;;;;;4316659;33;44232;-81
2021/09/26 03:10:47;;;;;;;;;;;19.80;89.60;;;;;;4315284;33;44993;-81
2021/09/26 03:13:14;;;;;;;;;;;19.80;90.00;;;;;;4315986;33;44587;-81
2021/09/26 03:15:41;;;;;;;;;;;19.70;89.80;;;;;;4303040;33;43199;-81
2021/09/26 03:18:09;;;;;;;;;;;19.70;89.90;;;;;;4302562;33;46192;-81
2021/09/26 03:20:36;;;;;;;;;;;19.80;90.00;;;;;;4316482;33;44749;-81
2021/09/26 03:23:03;;;;;;;;;;;19.70;90.00;;;;;;4302841;33;45483;-81
2021/09/26 03:25:31;;;;;;;;;;;19.70;90.10;;;;;;4315351;33;44201;-81
2021/09/26 03:27:58;;;;;;;;;;;19.70;90.20;;;;;;4315193;33;43783;-81
2021/09/26 03:30:28;;;;;;;;;;;19.70;90.20;;;;;;4303219;33;43853;-81
2021/09/26 03:32:55;;;;;;;;;;;19.60;90.20;;;;;;4302653;33;44267;-81
2021/09/26 03:35:22;;;;;;;;;;;19.70;90.20;;;;;;4314966;33;42834;-80
2021/09/26 03:37:54;;;;;;;;;;;19.70;90.30;;;;;;4316112;33;44544;-81
2021/09/26 03:40:21;;;;;;;;;;;19.70;90.30;;;;;;4316078;33;45647;-81
2021/09/26 03:42:48;;;;;;;;;;;19.70;90.30;;;;;;4302828;33;42602;-81
2021/09/26 03:45:18;;;;;;;;;;;19.70;90.50;;;;;;4302974;33;44061;-82
2021/09/26 03:47:45;;;;;;;;;;;19.70;90.40;;;;;;4316156;33;43481;-81
2021/09/26 03:50:15;;;;;;;;;;;19.70;90.50;;;;;;4302883;33;44012;-81
2021/09/26 03:52:49;;;;;;;;;;;19.70;90.50;;;;;;4315864;33;45797;-81
2021/09/26 03:55:16;;;;;;;;;;;19.70;90.50;;;;;;4314708;33;42590;-81
2021/09/26 03:57:43;;;;;;;;;;;19.70;90.50;;;;;;4314760;33;43980;-81
2021/09/26 04:00:13;;;;;;;;;;;19.70;90.90;;;;;;4302970;33;45725;-81
2021/09/26 04:02:40;;;;;;;;;;;19.70;90.60;;;;;;4315332;33;45333;-81
2021/09/26 04:05:08;;;;;;;;;;;19.70;90.70;;;;;;4315409;33;43279;-81
2021/09/26 04:07:35;;;;;;;;;;;19.70;90.80;;;;;;4316148;33;43841;-81
2021/09/26 04:10:06;;;;;;;;;;;19.70;90.90;;;;;;4315999;33;44207;-82
2021/09/26 04:12:33;;;;;;;;;;;19.70;91.00;;;;;;4301755;33;45131;-82
2021/09/26 04:15:00;;;;;;;;;;;19.60;91.10;;;;;;4315640;33;43892;-81
2021/09/26 04:17:30;;;;;;;;;;;19.60;91.10;;;;;;4315849;33;44339;-81
2021/09/26 04:19:57;;;;;;;;;;;19.60;91.20;;;;;;4315697;33;43946;-81
2021/09/26 04:22:27;;;;;;;;;;;19.60;91.20;;;;;;4302461;33;42576;-81
2021/09/26 04:24:54;;;;;;;;;;;19.60;91.20;;;;;;4302769;33;43469;-81
2021/09/26 04:27:21;;;;;;;;;;;19.60;91.40;;;;;;4302271;33;42976;-81
2021/09/26 04:29:49;;;;;;;;;;;19.60;91.30;;;;;;4315898;33;43843;-81
2021/09/26 04:32:16;;;;;;;;;;;19.60;91.30;;;;;;4305498;33;44085;-81
2021/09/26 04:34:43;;;;;;;;;;;19.60;91.30;;;;;;4318246;33;44270;-81
2021/09/26 04:37:10;;;;;;;;;;;19.60;91.30;;;;;;4305207;33;43482;-82
2021/09/26 04:39:37;;;;;;;;;;;19.60;91.30;;;;;;4317288;33;43977;-82
2021/09/26 04:42:06;;;;;;;;;;;19.60;91.30;;;;;;4305425;33;44346;-82
2021/09/26 04:44:34;;;;;;;;;;;19.60;91.40;;;;;;4318486;33;42795;-82
2021/09/26 04:47:01;;;;;;;;;;;19.60;91.40;;;;;;4318403;33;43585;-82
2021/09/26 04:49:28;;;;;;;;;;;19.60;91.30;;;;;;4305528;33;44270;-82
2021/09/26 04:51:57;;;;;;;;;;;19.60;91.40;;;;;;4304918;33;43497;-81
2021/09/26 04:54:27;;;;;;;;;;;19.60;91.70;;;;;;4304925;33;42501;-81
2021/09/26 04:56:54;;;;;;;;;;;19.70;91.40;;;;;;4318119;33;44200;-82
2021/09/26 04:59:21;;;;;;;;;;;19.60;91.40;;;;;;4318340;33;44003;-81
2021/09/26 05:01:49;;;;;;;;;;;19.60;91.40;;;;;;4317002;33;43927;-82
2021/09/26 05:04:17;;;;;;;;;;;19.60;91.50;;;;;;4305303;33;43487;-81
2021/09/26 05:06:44;;;;;;;;;;;19.60;91.50;;;;;;4318235;33;43922;-82
2021/09/26 05:09:11;;;;;;;;;;;19.60;91.60;;;;;;4316872;33;44036;-82
2021/09/26 05:11:38;;;;;;;;;;;19.60;91.60;;;;;;4304711;33;44181;-81
2021/09/26 05:14:05;;;;;;;;;;;19.50;91.60;;;;;;4318178;33;43967;-81
2021/09/26 05:16:32;;;;;;;;;;;19.60;91.60;;;;;;4317181;33;43425;-82
2021/09/26 05:19:02;;;;;;;;;;;19.50;91.60;;;;;;4318179;33;45832;-82
2021/09/26 05:21:29;;;;;;;;;;;19.50;91.70;;;;;;4317804;33;43799;-82
2021/09/26 05:23:56;;;;;;;;;;;19.50;91.70;;;;;;4304956;33;44180;-82
2021/09/26 05:26:23;;;;;;;;;;;19.50;91.70;;;;;;4316590;33;42681;-82
2021/09/26 05:28:50;;;;;;;;;;;19.50;91.70;;;;;;4304834;33;43499;-82
2021/09/26 05:31:17;;;;;;;;;;;19.50;91.70;;;;;;4304328;33;44545;-81
2021/09/26 05:33:44;;;;;;;;;;;19.60;91.80;;;;;;4317410;33;46045;-82
2021/09/26 05:36:15;;;;;;;;;;;19.50;91.70;;;;;;4316412;33;42266;-82
2021/09/26 05:38:42;;;;;;;;;;;19.50;91.80;;;;;;4304283;33;43059;-82
2021/09/26 05:41:09;;;;;;;;;;;19.50;91.80;;;;;;4317534;33;44176;-82
2021/09/26 05:43:36;;;;;;;;;;;19.50;91.80;;;;;;4304557;33;44797;-82
2021/09/26 05:46:03;;;;;;;;;;;19.50;91.80;;;;;;4317536;33;44024;-83
2021/09/26 05:48:30;;;;;;;;;;;19.50;91.90;;;;;;4316265;33;42707;-82
2021/09/26 05:50:57;;;;;;;;;;;19.40;92.00;;;;;;4316431;33;43190;-81
2021/09/26 05:53:27;;;;;;;;;;;19.40;92.00;;;;;;4317578;33;45560;-82
2021/09/26 05:55:54;;;;;;;;;;;19.40;92.00;;;;;;4316405;33;43110;-82
2021/09/26 05:58:21;;;;;;;;;;;19.40;92.00;;;;;;4304419;33;42989;-82
2021/09/26 06:00:48;;;;;;;;;;;19.40;92.10;;;;;;4317645;33;44317;-82
2021/09/26 06:03:15;;;;;;;;;;;19.40;92.10;;;;;;4315871;33;44199;-82
2021/09/26 06:05:43;;;;;;;;;;;19.40;92.10;;;;;;4317096;33;43278;-82
2021/09/26 06:08:11;;;;;;;;;;;19.40;92.10;;;;;;4304247;33;43304;-82
2021/09/26 06:10:39;;;;;;;;;;;19.40;92.10;;;;;;4317410;33;44061;-82
2021/09/26 06:13:06;;;;;;;;;;;19.50;92.10;;;;;;4317104;33;42312;-82
2021/09/26 06:15:34;;;;;;;;;;;19.50;92.10;;;;;;4316873;33;43325;-82
2021/09/26 06:18:01;;;;;;;;;;;19.50;92.10;;;;;;4303790;33;44066;-82
2021/09/26 06:20:28;;;;;;;;;;;19.50;92.10;;;;;;4316820;33;44194;-82
2021/09/26 06:22:55;;;;;;;;;;;19.50;92.10;;;;;;4316075;33;42764;-81
2021/09/26 06:25:22;;;;;;;;;;;19.40;92.10;;;;;;4317044;33;44704;-82
2021/09/26 06:27:49;;;;;;;;;;;19.40;92.10;;;;;;4316127;33;43091;-82
2021/09/26 06:30:16;;;;;;;;;;;19.40;92.20;;;;;;4316741;33;42600;-81
2021/09/26 06:32:44;;;;;;;;;;;19.40;92.30;;;;;;4316632;33;43032;-81
2021/09/26 06:35:11;;;;;;;;;;;19.40;92.30;;;;;;4303605;33;44129;-83
2021/09/26 06:37:38;;;;;;;;;;;19.30;92.40;;;;;;4316962;33;42659;-81
2021/09/26 06:40:06;;;;;;;;;;;19.30;92.40;;;;;;4303720;33;44325;-82
2021/09/26 06:42:34;;;;;;;;;;;19.30;92.50;;;;;;4316517;33;43202;-81
2021/09/26 06:45:01;;;;;;;;;;;19.20;92.50;;;;;;4315932;33;43300;-82
2021/09/26 06:47:29;;;;;;;;;;;19.20;92.60;;;;;;4316417;33;43169;-83
2021/09/26 06:49:56;;;;;;;;;;;19.20;92.60;;;;;;4315251;33;44937;-82
2021/09/26 06:52:23;;;;;;;;;;;19.20;92.60;;;;;;4315763;33;43947;-82
2021/09/26 06:54:50;;;;;;;;;;;19.20;92.60;;;;;;4303258;33;43457;-81
2021/09/26 06:57:17;;;;;;;;;;;19.20;93.00;;;;;;4315430;33;43196;-81
2021/09/26 06:59:44;;;;;;;;;;;19.20;92.70;;;;;;4316704;33;44239;-81
2021/09/26 07:02:14;;;;;;;;;;;19.20;92.70;;;;;;4315184;33;43497;-81
2021/09/26 07:04:41;;;;;;;;;;;19.20;92.70;;;;;;4316556;33;43336;-81
2021/09/26 07:07:08;;;;;;;;;;;19.10;92.70;;;;;;4316129;33;43474;-83
2021/09/26 07:09:35;;;;;;;;;;;19.20;92.70;;;;;;4315132;33;43883;-81
2021/09/26 07:12:02;;;;;;;;;;;19.20;92.80;;;;;;4303013;33;42659;-81
2021/09/26 07:14:29;;;;;;;;;;;19.20;92.80;;;;;;4316308;33;44175;-81
2021/09/26 07:16:59;;;;;;;;;;;19.20;92.80;;;;;;4303365;33;44368;-81
2021/09/26 07:19:27;;;;;;;;;;;19.20;92.80;;;;;;4315354;33;44146;-82
2021/09/26 07:21:54;;;;;;;;;;;19.10;92.80;;;;;;4315981;33;44129;-81
2021/09/26 07:24:21;;;;;;;;;;;19.10;92.80;;;;;;4302962;33;42612;-81
2021/09/26 07:26:48;;;;;;;;;;;19.20;92.80;;;;;;4315914;33;42231;-82
2021/09/26 07:29:15;;;;;;;;;;;19.20;92.80;;;;;;4316130;33;42573;-81
2021/09/26 07:31:42;;;;;;;;;;;19.20;92.90;;;;;;4316031;33;44241;-82
2021/09/26 07:34:09;;;;;;;;;;;19.20;92.80;;;;;;4303087;33;45551;-81
2021/09/26 07:36:36;;;;;;;;;;;19.20;92.90;;;;;;4302636;33;42828;-81
2021/09/26 07:39:04;;;;;;;;;;;19.20;92.90;;;;;;4315758;33;43204;-81
2021/09/26 07:41:32;;;;;;;;;;;19.20;93.00;;;;;;4314818;33;45725;-81
2021/09/26 07:44:00;;;;;;;;;;;19.20;92.90;;;;;;4315066;33;43525;-82
2021/09/26 07:46:27;;;;;;;;;;;19.20;92.90;;;;;;4316110;33;42654;-82
2021/09/26 07:48:54;;;;;;;;;;;19.20;92.90;;;;;;4315727;33;43856;-81
2021/09/26 07:51:21;;;;;;;;;;;19.20;92.90;;;;;;4314811;33;43938;-81
2021/09/26 07:53:48;;;;;;;;;;;19.20;92.90;;;;;;4315630;33;42717;-81
2021/09/26 07:56:16;;;;;;;;;;;19.20;92.90;;;;;;4302404;33;43584;-80
2021/09/26 07:58:43;;;;;;;;;;;19.20;92.90;;;;;;4315908;33;44613;-81
2021/09/26 08:01:10;;;;;;;;;;;19.20;92.90;;;;;;4314278;33;45133;-81
2021/09/26 08:03:38;;;;;;;;;;;19.30;93.00;;;;;;4302810;33;44278;-82
2021/09/26 08:06:10;;;;;;;;;;;19.20;93.00;;;;;;4315675;33;43832;-81
2021/09/26 08:08:40;;;;;;;;;;;19.30;93.00;;;;;;4302392;33;44844;-81
2021/09/26 08:11:07;;;;;;;;;;;19.30;93.00;;;;;;4314508;33;44161;-82
2021/09/26 08:13:34;;;;;;;;;;;19.30;93.00;;;;;;4315853;33;43986;-82
2021/09/26 08:16:01;;;;;;;;;;;19.30;93.00;;;;;;4314656;33;46113;-81
2021/09/26 08:18:28;;;;;;;;;;;19.30;93.10;;;;;;4315383;33;42787;-81
2021/09/26 08:20:55;;;;;;;;;;;19.30;93.10;;;;;;4302300;33;43028;-81
2021/09/26 08:23:23;;;;;;;;;;;19.30;93.10;;;;;;4314481;33;43593;-81
2021/09/26 08:25:51;;;;;;;;;;;19.30;93.10;;;;;;4314694;33;42724;-82
2021/09/26 08:28:18;;;;;;;;;;;19.30;93.10;;;;;;4302744;33;44126;-81
2021/09/26 08:30:45;;;;;;;;;;;19.30;93.10;;;;;;4314324;33;43265;-82
2021/09/26 08:33:13;;;;;;;;;;;19.40;93.10;;;;;;4316005;33;44215;-81
2021/09/26 08:35:40;;;;;;;;;;;19.30;93.10;;;;;;4315423;33;42880;-81
2021/09/26 08:38:07;;;;;;;;;;;19.40;93.20;;;;;;4315221;33;43828;-81
2021/09/26 08:40:34;;;;;;;;;;;19.30;93.20;;;;;;4315277;33;42080;-81
2021/09/26 08:43:07;;;;;;;;;;;19.30;93.10;;;;;;4302132;33;42435;-81
2021/09/26 08:45:38;;;;;;;;;;;19.40;93.10;;;;;;4302665;33;43641;-80
2021/09/26 08:48:08;;;;;;;;;;;19.40;93.10;;;;;;4302596;33;45001;-81
2021/09/26 08:50:35;;;;;;;;;;;19.40;93.10;;;;;;4302740;33;45608;-81
2021/09/26 08:53:06;;;;;;;;;;;19.50;93.10;;;;;;4302776;33;44815;-82
2021/09/26 08:55:34;;;;;;;;;;;19.50;93.20;;;;;;4315650;33;43159;-82
2021/09/26 08:58:04;;;;;;;;;;;19.50;93.10;;;;;;4313942;33;44224;-81
2021/09/26 09:00:31;;;;;;;;;;;19.50;93.10;;;;;;4302223;33;43379;-80
2021/09/26 09:03:00;;;;;;;;;;;19.50;93.10;;;;;;4314010;33;43346;-79
2021/09/26 09:05:34;;;;;;;;;;;19.50;93.10;;;;;;4315254;33;43048;-79
2021/09/26 09:08:21;;;;;;;;;;;19.50;93.10;;;;;;4315558;33;44915;-80
2021/09/26 09:10:50;;;;;;;;;;;19.60;93.10;;;;;;4315031;33;44210;-80
2021/09/26 09:13:40;;;;;;;;;;;19.60;93.00;;;;;;4315201;33;43747;-78
2021/09/26 09:16:09;;;;;;;;;;;19.60;93.00;;;;;;4311177;33;44224;-80
2021/09/26 09:18:42;;;;;;;;;;;19.60;93.00;;;;;;4318085;33;43415;-80
2021/09/26 09:21:18;;;;;;;;;;;19.60;93.00;;;;;;4318113;33;43809;-81
2021/09/26 09:23:45;;;;;;;;;;;19.60;93.00;;;;;;4305066;33;43947;-80
2021/09/26 09:26:13;;;;;;;;;;;19.70;93.00;;;;;;4318153;33;43251;-79
2021/09/26 09:28:40;;;;;;;;;;;19.70;93.00;;;;;;4316803;33;42747;-80
2021/09/26 09:31:09;;;;;;;;;;;19.70;93.00;;;;;;4316567;33;42256;-79
2021/09/26 09:33:43;;;;;;;;;;;19.70;92.90;;;;;;4304403;33;44103;-80
2021/09/26 09:36:17;;;;;;;;;;;19.70;92.90;;;;;;4316909;33;43433;-80
2021/09/26 09:38:45;;;;;;;;;;;19.70;92.90;;;;;;4304356;33;43514;-80
2021/09/26 09:41:12;;;;;;;;;;;19.80;93.00;;;;;;4316835;33;44306;-80
2021/09/26 09:43:49;;;;;;;;;;;19.80;92.90;;;;;;4317179;33;43868;-79
2021/09/26 09:46:37;;;;;;;;;;;19.80;92.90;;;;;;4316816;33;43961;-80
2021/09/26 09:49:08;;;;;;;;;;;19.80;92.90;;;;;;4316510;33;44973;-79
2021/09/26 09:51:36;;;;;;;;;;;19.80;92.90;;;;;;4304221;33;43004;-79
2021/09/26 09:54:07;;;;;;;;;;;19.80;92.90;;;;;;4316503;33;43795;-80
2021/09/26 09:56:42;;;;;;;;;;;19.80;92.90;;;;;;4316025;33;44001;-80
2021/09/26 09:59:10;;;;;;;;;;;19.80;93.00;;;;;;4316049;33;43763;-79
2021/09/26 10:01:39;;;;;;;;;;;19.80;93.00;;;;;;4317226;33;43533;-80
2021/09/26 10:04:07;;;;;;;;;;;19.80;92.90;;;;;;4316579;33;43315;-80
2021/09/26 10:06:38;;;;;;;;;;;19.80;93.00;;;;;;4316313;33;44223;-80
2021/09/26 10:09:20;;;;;;;;;;;19.80;92.90;;;;;;4303958;33;41813;-79
2021/09/26 10:11:49;;;;;;;;;;;19.80;92.90;;;;;;4316876;33;45756;-79
2021/09/26 10:14:17;;;;;;;;;;;19.80;92.90;;;;;;4317153;33;42693;-79
2021/09/26 10:16:46;;;;;;;;;;;19.90;92.90;;;;;;4316869;33;43766;-79
2021/09/26 10:19:13;;;;;;;;;;;19.90;92.90;;;;;;4315751;33;44306;-79
2021/09/26 10:21:41;;;;;;;;;;;19.90;92.90;;;;;;4316748;33;44301;-80
2021/09/26 10:24:08;;;;;;;;;;;19.90;92.90;;;;;;4317028;33;43387;-79
2021/09/26 10:26:38;;;;;;;;;;;19.90;92.90;;;;;;4316235;33;43950;-79
2021/09/26 10:29:05;;;;;;;;;;;19.90;92.90;;;;;;4316557;33;45327;-80
2021/09/26 10:31:33;;;;;;;;;;;19.90;93.00;;;;;;4316072;33;44252;-79
2021/09/26 10:34:01;;;;;;;;;;;19.90;93.00;;;;;;4303457;33;45780;-79
2021/09/26 10:36:29;;;;;;;;;;;19.90;93.00;;;;;;4303591;33;43215;-80
2021/09/26 10:39:03;;;;;;;;;;;19.90;93.10;;;;;;4315667;33;43196;-80
2021/09/26 10:41:30;;;;;;;;;;;19.90;93.10;;;;;;4316180;33;44219;-80
2021/09/26 10:44:17;;;;;;;;;;;19.80;93.10;;;;;;4303333;33;42712;-80
2021/09/26 10:46:44;;;;;;;;;;;19.90;93.10;;;;;;4316852;33;44187;-79
2021/09/26 10:49:15;;;;;;;;;;;19.90;93.10;;;;;;4316892;33;43971;-80
2021/09/26 10:51:53;;;;;;;;;;;19.90;93.10;;;;;;4315831;33;45777;-80
2021/09/26 10:54:21;;;;;;;;;;;19.90;93.10;;;;;;4315869;33;43289;-80
2021/09/26 10:57:03;;;;;;;;;;;19.90;93.10;;;;;;4315497;33;43788;-80
2021/09/26 10:59:43;;;;;;;;;;;19.90;93.10;;;;;;4316330;33;43176;-80
2021/09/26 11:02:23;;;;;;;;;;;19.90;93.10;;;;;;4316155;33;42614;-80
2021/09/26 11:04:53;;;;;;;;;;;19.90;93.20;;;;;;4312083;33;43284;-81
2021/09/26 11:07:21;;;;;;;;;;;19.90;93.20;;;;;;4316623;33;42626;-80
2021/09/26 11:09:49;;;;;;;;;;;19.90;93.20;;;;;;4316598;33;42472;-80
2021/09/26 11:12:46;;;;;;;;;;;19.90;93.20;;;;;;4315080;33;42452;-80
2021/09/26 11:15:23;;;;;;;;;;;19.90;93.20;;;;;;4306903;33;45854;-80
2021/09/26 11:17:59;;;;;;;;;;;19.90;93.30;;;;;;4303486;33;43111;-80
2021/09/26 11:20:29;;;;;;;;;;;19.90;93.30;;;;;;4315507;33;43008;-80
2021/09/26 11:23:05;;;;;;;;;;;19.90;93.30;;;;;;4303013;33;44280;-80
2021/09/26 11:25:51;;;;;;;;;;;19.90;93.40;;;;;;4303492;33;43948;-80
2021/09/26 11:28:28;;;;;;;;;;;19.90;93.30;;;;;;4303320;33;43019;-80
2021/09/26 11:30:56;;;;;;;;;;;19.90;93.40;;;;;;4316493;33;44209;-80
2021/09/26 11:33:24;;;;;;;;;;;19.90;93.40;;;;;;4302610;33;43971;-80
2021/09/26 11:35:51;;;;;;;;;;;19.90;93.50;;;;;;4315868;33;43689;-80
2021/09/26 11:38:33;;;;;;;;;;;19.80;93.50;;;;;;4316048;33;43839;-80
2021/09/26 11:41:03;;;;;;;;;;;19.90;93.50;;;;;;4303198;33;43862;-80
2021/09/26 11:43:40;;;;;;;;;;;19.80;93.50;;;;;;4315683;33;44421;-80
2021/09/26 11:46:21;;;;;;;;;;;19.80;93.60;;;;;;4315327;33;44094;-81
2021/09/26 11:48:53;;;;;;;;;;;19.80;93.50;;;;;;4314595;33;43178;-81
2021/09/26 11:51:20;;;;;;;;;;;19.80;93.60;;;;;;4316377;33;44901;-80
2021/09/26 11:53:48;;;;;;;;;;;19.80;93.60;;;;;;4316211;33;43179;-80
2021/09/26 11:56:17;;;;;;;;;;;19.80;93.60;;;;;;4316049;33;45821;-81
2021/09/26 11:58:44;;;;;;;;;;;19.80;93.60;;;;;;4315521;33;42692;-81
2021/09/26 12:01:14;;;;;;;;;;;19.80;93.70;;;;;;4315437;33;42140;-81
2021/09/26 12:03:41;;;;;;;;;;;19.80;93.70;;;;;;4316060;33;43578;-81
2021/09/26 12:06:18;;;;;;;;;;;19.80;93.70;;;;;;4302793;33;42896;-80
2021/09/26 12:08:45;;;;;;;;;;;19.80;93.80;;;;;;4315675;33;43579;-81
2021/09/26 12:11:15;;;;;;;;;;;19.80;93.80;;;;;;4302477;33;43512;-81
2021/09/26 12:13:50;;;;;;;;;;;19.80;93.80;;;;;;4302666;33;43655;-81
2021/09/26 12:16:18;;;;;;;;;;;19.80;93.80;;;;;;4314849;33;45189;-81
2021/09/26 12:18:52;;;;;;;;;;;19.90;93.90;;;;;;4302321;33;43012;-80
2021/09/26 12:21:20;;;;;;;;;;;19.80;93.80;;;;;;4315563;33;44045;-80
2021/09/26 12:24:03;;;;;;;;;;;19.90;93.80;;;;;;4303268;33;19998;-80
2021/09/26 12:26:40;;;;;;;;;;;19.90;93.80;;;;;;4315762;33;42427;-80
2021/09/26 12:29:27;;;;;;;;;;;19.90;93.80;;;;;;4302686;33;42967;-80
2021/09/26 12:31:58;;;;;;;;;;;19.90;93.80;;;;;;4314854;33;44228;-81
2021/09/26 12:34:40;;;;;;;;;;;19.90;93.80;;;;;;4315337;33;44996;-80
2021/09/26 12:37:15;;;;;;;;;;;19.90;93.80;;;;;;4302549;33;44206;-80
2021/09/26 12:39:47;;;;;;;;;;;19.90;93.80;;;;;;4315797;33;42886;-80
2021/09/26 12:42:21;;;;;;;;;;;19.90;93.90;;;;;;4302784;33;45024;-80
2021/09/26 12:44:49;;;;;;;;;;;19.90;93.90;;;;;;4314829;33;43730;-80
2021/09/26 12:47:18;;;;;;;;;;;19.90;93.90;;;;;;4302500;33;44183;-80
2021/09/26 12:49:49;;;;;;;;;;;20.00;93.90;;;;;;4315109;33;44208;-80
2021/09/26 12:52:18;;;;;;;;;;;20.00;93.90;;;;;;4316971;33;44873;-80
2021/09/26 12:54:49;;;;;;;;;;;20.00;93.90;;;;;;4318980;33;20006;-80
2021/09/26 12:57:23;;;;;;;;;;;20.00;93.90;;;;;;4318475;33;43906;-80
2021/09/26 13:00:09;;;;;;;;;;;20.00;93.90;;;;;;4305439;33;43881;-80
2021/09/26 13:02:59;;;;;;;;;;;20.00;93.90;;;;;;4304946;33;44185;-80
2021/09/26 13:05:32;;;;;;;;;;;20.00;94.00;;;;;;4318510;33;44367;-80
2021/09/26 13:08:19;;;;;;;;;;;20.00;94.10;;;;;;4304702;33;42369;-80
2021/09/26 13:11:05;;;;;;;;;;;20.00;94.00;;;;;;4309463;33;43751;-80
2021/09/26 13:13:37;;;;;;;;;;;20.00;94.10;;;;;;4316824;33;43798;-80
2021/09/26 13:16:26;;;;;;;;;;;20.00;94.00;;;;;;4304880;33;42719;-81
2021/09/26 13:18:53;;;;;;;;;;;20.00;94.10;;;;;;4305158;33;44163;-80
2021/09/26 13:21:20;;;;;;;;;;;20.00;94.10;;;;;;4304683;33;43075;-80
2021/09/26 13:24:11;;;;;;;;;;;20.00;94.10;;;;;;4304539;33;44132;-81
2021/09/26 13:26:41;;;;;;;;;;;20.00;94.10;;;;;;4305029;33;43998;-80
2021/09/26 13:29:15;;;;;;;;;;;20.00;94.20;;;;;;4318111;33;43477;-80
2021/09/26 13:32:08;;;;;;;;;;;20.10;94.20;;;;;;4316374;33;42946;-80
2021/09/26 13:34:36;;;;;;;;;;;20.10;94.10;;;;;;4304168;33;43682;-81
2021/09/26 13:37:19;;;;;;;;;;;20.10;94.00;;;;;;4317540;33;43220;-80
2021/09/26 13:39:52;;;;;;;;;;;20.20;94.10;;;;;;4304368;33;43681;-80
2021/09/26 13:42:19;;;;;;;;;;;20.20;94.10;;;;;;4304130;33;43350;-80
2021/09/26 13:44:48;;;;;;;;;;;20.20;94.00;;;;;;4304892;33;43534;-80
2021/09/26 13:47:16;;;;;;;;;;;20.20;94.00;;;;;;4304207;33;43453;-80
2021/09/26 13:49:43;;;;;;;;;;;20.20;94.10;;;;;;4317595;33;42736;-81
2021/09/26 13:52:10;;;;;;;;;;;20.20;94.10;;;;;;4316163;33;42773;-80
2021/09/26 13:54:38;;;;;;;;;;;20.20;94.10;;;;;;4317570;33;43451;-81
2021/09/26 13:57:05;;;;;;;;;;;20.30;94.10;;;;;;4304850;33;19998;-80
2021/09/26 13:59:32;;;;;;;;;;;20.30;94.10;;;;;;4317282;33;42638;-79
2021/09/26 14:01:59;;;;;;;;;;;20.40;94.00;;;;;;4317096;33;43052;-80
2021/09/26 14:04:33;;;;;;;;;;;20.40;94.00;;;;;;4304660;33;44698;-80
2021/09/26 14:07:06;;;;;;;;;;;20.40;93.90;;;;;;4317140;33;43451;-80
2021/09/26 14:09:33;;;;;;;;;;;20.40;93.90;;;;;;4304358;33;43526;-79
2021/09/26 14:12:04;;;;;;;;;;;20.50;93.90;;;;;;4315913;33;42917;-80
2021/09/26 14:14:31;;;;;;;;;;;20.50;93.90;;;;;;4304038;33;42571;-79
2021/09/26 14:17:04;;;;;;;;;;;20.50;93.90;;;;;;4304081;33;42919;-80
2021/09/26 14:19:32;;;;;;;;;;;20.50;93.90;;;;;;4315960;33;42188;-78
2021/09/26 14:21:59;;;;;;;;;;;20.50;93.80;;;;;;4304044;33;45708;-79
2021/09/26 14:24:32;;;;;;;;;;;20.50;93.80;;;;;;4317185;33;45350;-80
2021/09/26 14:26:59;;;;;;;;;;;20.50;93.70;;;;;;4304047;33;42130;-80
2021/09/26 14:29:32;;;;;;;;;;;20.50;93.70;;;;;;4317198;33;45776;-80
2021/09/26 14:31:59;;;;;;;;;;;20.50;93.70;;;;;;4316707;33;44662;-80